Aviation Digital Data Service (ADDS)

Output produced by METARs form (1953 UTC 23 January 2019)
found at http://www.aviationweather.gov/metar/data/
 
METAR text: KMCI 231853Z 28006KT 10SM BKN015 M05/M09 A3002 RMK AO2 SLP178 T10501089
Conditions at: KMCI (KANSAS CITY/INTL, MO, US) observed 1853 UTC 23 January 2019
Temperature: -5.0°C (23°F)
Dewpoint: -8.9°C (16°F) [RH = 74%]
Pressure (altimeter): 30.02 inches Hg (1016.7 mb)
[Sea-level pressure: 1017.8 mb]
Winds: from the W (280 degrees) at 7 MPH (6 knots; 3.1 m/s)
Visibility: 10 or more miles (16+ km)
Ceiling: 1500 feet AGL
Clouds: broken clouds at 1500 feet AGL
Weather: no significant weather observed at this time

METAR text: KMCI 231816Z 29009KT 10SM BKN015 M06/M10 A3004 RMK AO2 T10611100
Conditions at: KMCI (KANSAS CITY/INTL, MO, US) observed 1816 UTC 23 January 2019
Temperature: -6.1°C (21°F)
Dewpoint: -10.0°C (14°F) [RH = 74%]
Pressure (altimeter): 30.04 inches Hg (1017.4 mb)
Winds: from the WNW (290 degrees) at 10 MPH (9 knots; 4.6 m/s)
Visibility: 10 or more miles (16+ km)
Ceiling: 1500 feet AGL
Clouds: broken clouds at 1500 feet AGL
Weather: no significant weather observed at this time

METAR text: KMCI 231753Z 31007KT 10SM SCT015 M06/M10 A3005 RMK AO2 SLP189 4/002 933002 T10611100 11061 21106 50008
Conditions at: KMCI (KANSAS CITY/INTL, MO, US) observed 1753 UTC 23 January 2019
Temperature: -6.1°C (21°F)
Dewpoint: -10.0°C (14°F) [RH = 74%]
Pressure (altimeter): 30.05 inches Hg (1017.7 mb)
[Sea-level pressure: 1018.9 mb]
Winds: from the NW (310 degrees) at 8 MPH (7 knots; 3.6 m/s)
Visibility: 10 or more miles (16+ km)
Ceiling: at least 12,000 feet AGL
Clouds: scattered clouds at 1500 feet AGL
Weather: no significant weather observed at this time

METAR text: KMCI 231653Z 29006KT 10SM SCT015 M07/M11 A3007 RMK AO2 SLP194 T10671106
Conditions at: KMCI (KANSAS CITY/INTL, MO, US) observed 1653 UTC 23 January 2019
Temperature: -6.7°C (20°F)
Dewpoint: -10.6°C (13°F) [RH = 74%]
Pressure (altimeter): 30.07 inches Hg (1018.4 mb)
[Sea-level pressure: 1019.4 mb]
Winds: from the WNW (290 degrees) at 7 MPH (6 knots; 3.1 m/s)
Visibility: 10 or more miles (16+ km)
Ceiling: at least 12,000 feet AGL
Clouds: scattered clouds at 1500 feet AGL
Weather: no significant weather observed at this time

METAR text: KMCI 231553Z 31008KT 10SM FEW012 FEW200 M08/M11 A3006 RMK AO2 SLP190 T10831111
Conditions at: KMCI (KANSAS CITY/INTL, MO, US) observed 1553 UTC 23 January 2019
Temperature: -8.3°C (17°F)
Dewpoint: -11.1°C (12°F) [RH = 80%]
Pressure (altimeter): 30.06 inches Hg (1018.0 mb)
[Sea-level pressure: 1019.0 mb]
Winds: from the NW (310 degrees) at 9 MPH (8 knots; 4.1 m/s)
Visibility: 10 or more miles (16+ km)
Ceiling: at least 12,000 feet AGL
Clouds: few clouds at 1200 feet AGL
few clouds at 20000 feet AGL
Weather: no significant weather observed at this time

METAR text: KMCI 231453Z 31007KT 10SM FEW200 M09/M12 A3003 RMK AO2 SLP180 T10941122 50008
Conditions at: KMCI (KANSAS CITY/INTL, MO, US) observed 1453 UTC 23 January 2019
Temperature: -9.4°C (15°F)
Dewpoint: -12.2°C (10°F) [RH = 80%]
Pressure (altimeter): 30.03 inches Hg (1017.0 mb)
[Sea-level pressure: 1018.0 mb]
Winds: from the NW (310 degrees) at 8 MPH (7 knots; 3.6 m/s)
Visibility: 10 or more miles (16+ km)
Ceiling: at least 12,000 feet AGL
Clouds: few clouds at 20000 feet AGL
Weather: no significant weather observed at this time

METAR text: KMCI 231353Z 29007KT 7SM FEW200 M11/M13 A3004 RMK AO2 SLP186 T11061128
Conditions at: KMCI (KANSAS CITY/INTL, MO, US) observed 1353 UTC 23 January 2019
Temperature: -10.6°C (13°F)
Dewpoint: -12.8°C ( 9°F) [RH = 84%]
Pressure (altimeter): 30.04 inches Hg (1017.4 mb)
[Sea-level pressure: 1018.6 mb]
Winds: from the WNW (290 degrees) at 8 MPH (7 knots; 3.6 m/s)
Visibility: 7 miles (11 km)
Ceiling: at least 12,000 feet AGL
Clouds: few clouds at 20000 feet AGL
Weather: no significant weather observed at this time

METAR text: KMCI 231305Z 31007KT 8SM FEW014 M11/M12 A3002 RMK AO2 T11061122
Conditions at: KMCI (KANSAS CITY/INTL, MO, US) observed 1305 UTC 23 January 2019
Temperature: -10.6°C (13°F)
Dewpoint: -12.2°C (10°F) [RH = 88%]
Pressure (altimeter): 30.02 inches Hg (1016.7 mb)
Winds: from the NW (310 degrees) at 8 MPH (7 knots; 3.6 m/s)
Visibility: 8 miles (13 km)
Ceiling: at least 12,000 feet AGL
Clouds: few clouds at 1400 feet AGL
Weather: no significant weather observed at this time

METAR text: KMCI 231253Z 31007KT 8SM BKN014 M10/M12 A3002 RMK AO2 SLP176 T11001122
Conditions at: KMCI (KANSAS CITY/INTL, MO, US) observed 1253 UTC 23 January 2019
Temperature: -10.0°C (14°F)
Dewpoint: -12.2°C (10°F) [RH = 84%]
Pressure (altimeter): 30.02 inches Hg (1016.7 mb)
[Sea-level pressure: 1017.6 mb]
Winds: from the NW (310 degrees) at 8 MPH (7 knots; 3.6 m/s)
Visibility: 8 miles (13 km)
Ceiling: 1400 feet AGL
Clouds: broken clouds at 1400 feet AGL
Weather: no significant weather observed at this time

METAR text: KMCI 231153Z 31007KT 8SM BKN014 M09/M12 A3000 RMK AO2 SLP171 4/002 931002 60001 70048 T10941117 11056 21094 53006
Conditions at: KMCI (KANSAS CITY/INTL, MO, US) observed 1153 UTC 23 January 2019
Temperature: -9.4°C (15°F)
Dewpoint: -11.7°C (11°F) [RH = 83%]
Pressure (altimeter): 30.00 inches Hg (1016.0 mb)
[Sea-level pressure: 1017.1 mb]
Winds: from the NW (310 degrees) at 8 MPH (7 knots; 3.6 m/s)
Visibility: 8 miles (13 km)
Ceiling: 1400 feet AGL
Clouds: broken clouds at 1400 feet AGL
Weather: no significant weather observed at this time

METAR text: KMCI 231115Z 32008KT 7SM SCT015 M09/M12 A2999 RMK AO2 T10941117
Conditions at: KMCI (KANSAS CITY/INTL, MO, US) observed 1115 UTC 23 January 2019
Temperature: -9.4°C (15°F)
Dewpoint: -11.7°C (11°F) [RH = 83%]
Pressure (altimeter): 29.99 inches Hg (1015.7 mb)
Winds: from the NW (320 degrees) at 9 MPH (8 knots; 4.1 m/s)
Visibility: 7 miles (11 km)
Ceiling: at least 12,000 feet AGL
Clouds: scattered clouds at 1500 feet AGL
Weather: no significant weather observed at this time

METAR text: KMCI 231053Z 32009KT 7SM BKN015 M09/M12 A2999 RMK AO2 SNE03 SLP166 P0000 T10891117
Conditions at: KMCI (KANSAS CITY/INTL, MO, US) observed 1053 UTC 23 January 2019
Temperature: -8.9°C (16°F)
Dewpoint: -11.7°C (11°F) [RH = 80%]
Pressure (altimeter): 29.99 inches Hg (1015.7 mb)
[Sea-level pressure: 1016.6 mb]
Winds: from the NW (320 degrees) at 10 MPH (9 knots; 4.6 m/s)
Visibility: 7 miles (11 km)
Ceiling: 1500 feet AGL
Clouds: broken clouds at 1500 feet AGL
Weather: no significant weather observed at this time

METAR text: KMCI 230953Z 33011KT 4SM -SN BR OVC015 M08/M11 A2997 RMK AO2 SNB16 SLP159 P0000 T10831106
Conditions at: KMCI (KANSAS CITY/INTL, MO, US) observed 0953 UTC 23 January 2019
Temperature: -8.3°C (17°F)
Dewpoint: -10.6°C (13°F) [RH = 83%]
Pressure (altimeter): 29.97 inches Hg (1015.0 mb)
[Sea-level pressure: 1015.9 mb]
Winds: from the NNW (330 degrees) at 13 MPH (11 knots; 5.7 m/s)
Visibility: 4 miles ( 6 km)
Ceiling: 1500 feet AGL
Clouds: overcast cloud deck at 1500 feet AGL
Weather: -SN BR  (light snow, mist)

METAR text: KMCI 230902Z 33013G21KT 6SM BR OVC013 M08/M10 A2998 RMK AO2 T10781100
Conditions at: KMCI (KANSAS CITY/INTL, MO, US) observed 0902 UTC 23 January 2019
Temperature: -7.8°C (18°F)
Dewpoint: -10.0°C (14°F) [RH = 84%]
Pressure (altimeter): 29.98 inches Hg (1015.3 mb)
Winds: from the NNW (330 degrees) at 15 MPH (13 knots; 6.7 m/s)
gusting to 24 MPH (21 knots; 10.8 m/s)
Visibility: 6 miles (10 km)
Ceiling: 1300 feet AGL
Clouds: overcast cloud deck at 1300 feet AGL
Weather: BR  (mist)

METAR text: KMCI 230853Z 32013G20KT 6SM HZ OVC013 M07/M10 A2998 RMK AO2 SNE20 SLP163 P0000 60001 T10721100 51023
Conditions at: KMCI (KANSAS CITY/INTL, MO, US) observed 0853 UTC 23 January 2019
Temperature: -7.2°C (19°F)
Dewpoint: -10.0°C (14°F) [RH = 80%]
Pressure (altimeter): 29.98 inches Hg (1015.3 mb)
[Sea-level pressure: 1016.3 mb]
Winds: from the NW (320 degrees) at 15 MPH (13 knots; 6.7 m/s)
gusting to 23 MPH (20 knots; 10.3 m/s)
Visibility: 6 miles (10 km)
Ceiling: 1300 feet AGL
Clouds: overcast cloud deck at 1300 feet AGL
Weather: HZ  (haze)

METAR text: KMCI 230803Z 32014G23KT 4SM -SN BR BKN012 OVC017 M07/M09 A2997 RMK AO2 P0000 T10671089
Conditions at: KMCI (KANSAS CITY/INTL, MO, US) observed 0803 UTC 23 January 2019
Temperature: -6.7°C (20°F)
Dewpoint: -8.9°C (16°F) [RH = 84%]
Pressure (altimeter): 29.97 inches Hg (1015.0 mb)
Winds: from the NW (320 degrees) at 16 MPH (14 knots; 7.2 m/s)
gusting to 26 MPH (23 knots; 11.8 m/s)
Visibility: 4 miles ( 6 km)
Ceiling: 1200 feet AGL
Clouds: broken clouds at 1200 feet AGL
overcast cloud deck at 1700 feet AGL
Weather: -SN BR  (light snow, mist)

METAR text: KMCI 230753Z 31012G20KT 1SM R19R/P6000FT -SN BR BKN014 OVC019 M07/M09 A2996 RMK AO2 SFC VIS 3 SLP156 P0001 T10671089
Conditions at: KMCI (KANSAS CITY/INTL, MO, US) observed 0753 UTC 23 January 2019
Temperature: -6.7°C (20°F)
Dewpoint: -8.9°C (16°F) [RH = 84%]
Pressure (altimeter): 29.96 inches Hg (1014.6 mb)
[Sea-level pressure: 1015.6 mb]
Winds: from the NW (310 degrees) at 14 MPH (12 knots; 6.2 m/s)
gusting to 23 MPH (20 knots; 10.3 m/s)
Visibility: 1.00 miles (1.61 km)
Ceiling: 1400 feet AGL
Clouds: broken clouds at 1400 feet AGL
overcast cloud deck at 1900 feet AGL
Weather: -SN BR  (light snow, mist)

METAR text: KMCI 230721Z 33014KT 1SM R19R/P6000FT -SN BR OVC016 M06/M08 A2994 RMK AO2 SFC VIS 1 3/4 P0000 T10611083
Conditions at: KMCI (KANSAS CITY/INTL, MO, US) observed 0721 UTC 23 January 2019
Temperature: -6.1°C (21°F)
Dewpoint: -8.3°C (17°F) [RH = 84%]
Pressure (altimeter): 29.94 inches Hg (1014.0 mb)
Winds: from the NNW (330 degrees) at 16 MPH (14 knots; 7.2 m/s)
Visibility: 1.00 miles (1.61 km)
Ceiling: 1600 feet AGL
Clouds: overcast cloud deck at 1600 feet AGL
Weather: -SN BR  (light snow, mist)

METAR text: KMCI 230707Z 33013G22KT 2SM -SN BR BKN016 OVC050 M06/M08 A2995 RMK AO2 P0000 T10611083
Conditions at: KMCI (KANSAS CITY/INTL, MO, US) observed 0707 UTC 23 January 2019
Temperature: -6.1°C (21°F)
Dewpoint: -8.3°C (17°F) [RH = 84%]
Pressure (altimeter): 29.95 inches Hg (1014.3 mb)
Winds: from the NNW (330 degrees) at 15 MPH (13 knots; 6.7 m/s)
gusting to 25 MPH (22 knots; 11.3 m/s)
Visibility: 2.00 miles (3.22 km)
Ceiling: 1600 feet AGL
Clouds: broken clouds at 1600 feet AGL
overcast cloud deck at 5000 feet AGL
Weather: -SN BR  (light snow, mist)

METAR text: KMCI 230653Z 33014KT 3SM -SN BR BKN014 BKN022 OVC050 M06/M08 A2995 RMK AO2 SLP149 P0000 T10611083
Conditions at: KMCI (KANSAS CITY/INTL, MO, US) observed 0653 UTC 23 January 2019
Temperature: -6.1°C (21°F)
Dewpoint: -8.3°C (17°F) [RH = 84%]
Pressure (altimeter): 29.95 inches Hg (1014.3 mb)
[Sea-level pressure: 1014.9 mb]
Winds: from the NNW (330 degrees) at 16 MPH (14 knots; 7.2 m/s)
Visibility: 3 miles ( 5 km)
Ceiling: 1400 feet AGL
Clouds: broken clouds at 1400 feet AGL
broken clouds at 2200 feet AGL
overcast cloud deck at 5000 feet AGL
Weather: -SN BR  (light snow, mist)

METAR text: KMCI 230632Z 33015G22KT 3SM -SN BR OVC016 M06/M08 A2993 RMK AO2 SFC VIS 4 P0000 T10611078
Conditions at: KMCI (KANSAS CITY/INTL, MO, US) observed 0632 UTC 23 January 2019
Temperature: -6.1°C (21°F)
Dewpoint: -7.8°C (18°F) [RH = 88%]
Pressure (altimeter): 29.93 inches Hg (1013.6 mb)
Winds: from the NNW (330 degrees) at 17 MPH (15 knots; 7.7 m/s)
gusting to 25 MPH (22 knots; 11.3 m/s)
Visibility: 3 miles ( 5 km)
Ceiling: 1600 feet AGL
Clouds: overcast cloud deck at 1600 feet AGL
Weather: -SN BR  (light snow, mist)

METAR text: KMCI 230610Z 31014G22KT 3SM -SN BR BKN014 OVC031 M06/M08 A2994 RMK AO2 P0000 T10561078
Conditions at: KMCI (KANSAS CITY/INTL, MO, US) observed 0610 UTC 23 January 2019
Temperature: -5.6°C (22°F)
Dewpoint: -7.8°C (18°F) [RH = 84%]
Pressure (altimeter): 29.94 inches Hg (1014.0 mb)
Winds: from the NW (310 degrees) at 16 MPH (14 knots; 7.2 m/s)
gusting to 25 MPH (22 knots; 11.3 m/s)
Visibility: 3 miles ( 5 km)
Ceiling: 1400 feet AGL
Clouds: broken clouds at 1400 feet AGL
overcast cloud deck at 3100 feet AGL
Weather: -SN BR  (light snow, mist)

METAR text: KMCI 230557Z 32013KT 3SM -SN BR SCT013 BKN018 OVC031 M06/M08 A2992 RMK AO2 P0000 T10561078
Conditions at: KMCI (KANSAS CITY/INTL, MO, US) observed 0557 UTC 23 January 2019
Temperature: -5.6°C (22°F)
Dewpoint: -7.8°C (18°F) [RH = 84%]
Pressure (altimeter): 29.92 inches Hg (1013.3 mb)
Winds: from the NW (320 degrees) at 15 MPH (13 knots; 6.7 m/s)
Visibility: 3 miles ( 5 km)
Ceiling: 1800 feet AGL
Clouds: scattered clouds at 1300 feet AGL
broken clouds at 1800 feet AGL
overcast cloud deck at 3100 feet AGL
Weather: -SN BR  (light snow, mist)

METAR text: KMCI 230553Z 33013KT 1/2SM R19R/P6000FT -SN BR SCT010 BKN016 OVC031 M06/M08 A2991 RMK AO2 SFC VIS 2 1/2 SLP137 SNINCR 1/2 4/002 931017 24/931017 P0002 60021 I6003 T10561078 10000 21056 400391056 53002
Conditions at: KMCI (KANSAS CITY/INTL, MO, US) observed 0553 UTC 23 January 2019
Temperature: -5.6°C (22°F)
Dewpoint: -7.8°C (18°F) [RH = 84%]
Pressure (altimeter): 29.91 inches Hg (1013.0 mb)
[Sea-level pressure: 1013.7 mb]
Winds: from the NNW (330 degrees) at 15 MPH (13 knots; 6.7 m/s)
Visibility: 0.50 miles (0.80 km)
Ceiling: 1600 feet AGL
Clouds: scattered clouds at 1000 feet AGL
broken clouds at 1600 feet AGL
overcast cloud deck at 3100 feet AGL
Weather: -SN BR  (light snow, mist)

METAR text: KMCI 230453Z 34013G20KT 1/2SM R19R/6000VP6000FT -SN BR FEW007 OVC011 M06/M07 A2991 RMK AO2 SFC VIS 3/4 SLP136 SNINCR 1/1 P0004 T10561067
Conditions at: KMCI (KANSAS CITY/INTL, MO, US) observed 0453 UTC 23 January 2019
Temperature: -5.6°C (22°F)
Dewpoint: -6.7°C (20°F) [RH = 92%]
Pressure (altimeter): 29.91 inches Hg (1013.0 mb)
[Sea-level pressure: 1013.6 mb]
Winds: from the NNW (340 degrees) at 15 MPH (13 knots; 6.7 m/s)
gusting to 23 MPH (20 knots; 10.3 m/s)
Visibility: 0.50 miles (0.80 km)
Ceiling: 1100 feet AGL
Clouds: few clouds at 700 feet AGL
overcast cloud deck at 1100 feet AGL
Weather: -SN BR  (light snow, mist)

METAR text: KMCI 230451Z 33013G20KT 1/2SM R19R/5500VP6000FT -SN BR FEW007 OVC011 M06/M07 A2991 RMK AO2 SFC VIS 3/4 SNINCR 1/1 P0003
Conditions at: KMCI (KANSAS CITY/INTL, MO, US) observed 0451 UTC 23 January 2019
Temperature: -6.0°C (21°F)
Dewpoint: -7.0°C (19°F) [RH = 93%]
Pressure (altimeter): 29.91 inches Hg (1013.0 mb)
Winds: from the NNW (330 degrees) at 15 MPH (13 knots; 6.7 m/s)
gusting to 23 MPH (20 knots; 10.3 m/s)
Visibility: 0.50 miles (0.80 km)
Ceiling: 1100 feet AGL
Clouds: few clouds at 700 feet AGL
overcast cloud deck at 1100 feet AGL
Weather: -SN BR  (light snow, mist)

METAR text: KMCI 230400Z 35017G22KT 1/2SM R19R/3500V4500FT SN FZFG VV007 M04/M06 A2989 RMK AO2 TWR VIS 2 PRESFR P0000 T10441061
Conditions at: KMCI (KANSAS CITY/INTL, MO, US) observed 0400 UTC 23 January 2019
Temperature: -4.4°C (24°F)
Dewpoint: -6.1°C (21°F) [RH = 88%]
Pressure (altimeter): 29.89 inches Hg (1012.3 mb)
Winds: from the N (350 degrees) at 20 MPH (17 knots; 8.7 m/s)
gusting to 25 MPH (22 knots; 11.3 m/s)
Visibility: 0.50 miles (0.80 km)
Ceiling: indefinite ceiling with vertical visibility of 700 feet AGL
Clouds: obscured sky
Weather: SN FZFG  (moderate snow, freezing fog)

METAR text: KMCI 230353Z 35011KT 1/2SM R19R/4000V5500FT SN FZFG BKN010 OVC014 M04/M06 A2991 RMK AO2 TWR VIS 2 SLP136 P0005 T10441056
Conditions at: KMCI (KANSAS CITY/INTL, MO, US) observed 0353 UTC 23 January 2019
Temperature: -4.4°C (24°F)
Dewpoint: -5.6°C (22°F) [RH = 91%]
Pressure (altimeter): 29.91 inches Hg (1013.0 mb)
[Sea-level pressure: 1013.6 mb]
Winds: from the N (350 degrees) at 13 MPH (11 knots; 5.7 m/s)
Visibility: 0.50 miles (0.80 km)
Ceiling: 1000 feet AGL
Clouds: broken clouds at 1000 feet AGL
overcast cloud deck at 1400 feet AGL
Weather: SN FZFG  (moderate snow, freezing fog)

METAR text: KMCI 230339Z 34013G23KT 3/4SM R19R/5500VP6000FT -SN BR FEW008 OVC014 M04/M06 A2992 RMK AO2 TWR VIS 2 P0002 T10441061
Conditions at: KMCI (KANSAS CITY/INTL, MO, US) observed 0339 UTC 23 January 2019
Temperature: -4.4°C (24°F)
Dewpoint: -6.1°C (21°F) [RH = 88%]
Pressure (altimeter): 29.92 inches Hg (1013.3 mb)
Winds: from the NNW (340 degrees) at 15 MPH (13 knots; 6.7 m/s)
gusting to 26 MPH (23 knots; 11.8 m/s)
Visibility: 0.75 miles (1.21 km)
Ceiling: 1400 feet AGL
Clouds: few clouds at 800 feet AGL
overcast cloud deck at 1400 feet AGL
Weather: -SN BR  (light snow, mist)

METAR text: KMCI 230323Z 34018G24KT 1 3/4SM -SN BR OVC014 M04/M06 A2991 RMK AO2 TWR VIS 2 P0001 T10391061
Conditions at: KMCI (KANSAS CITY/INTL, MO, US) observed 0323 UTC 23 January 2019
Temperature: -3.9°C (25°F)
Dewpoint: -6.1°C (21°F) [RH = 85%]
Pressure (altimeter): 29.91 inches Hg (1013.0 mb)
Winds: from the NNW (340 degrees) at 21 MPH (18 knots; 9.3 m/s)
gusting to 28 MPH (24 knots; 12.3 m/s)
Visibility: 1.75 miles (2.82 km)
Ceiling: 1400 feet AGL
Clouds: overcast cloud deck at 1400 feet AGL
Weather: -SN BR  (light snow, mist)

METAR text: KMCI 230253Z 34014G22KT 3SM -SN BR OVC012 M03/M05 A2990 RMK AO2 PK WND 01030/0205 SFC VIS 4 SLP134 P0001 60010 I3003 T10331050 53012
Conditions at: KMCI (KANSAS CITY/INTL, MO, US) observed 0253 UTC 23 January 2019
Temperature: -3.3°C (26°F)
Dewpoint: -5.0°C (23°F) [RH = 88%]
Pressure (altimeter): 29.90 inches Hg (1012.6 mb)
[Sea-level pressure: 1013.4 mb]
Winds: from the NNW (340 degrees) at 16 MPH (14 knots; 7.2 m/s)
gusting to 25 MPH (22 knots; 11.3 m/s)
Visibility: 3 miles ( 5 km)
Ceiling: 1200 feet AGL
Clouds: overcast cloud deck at 1200 feet AGL
Weather: -SN BR  (light snow, mist)

METAR text: KMCI 230232Z 34016G23KT 3SM -SN BR BKN012 BKN017 OVC023 M03/M04 A2989 RMK AO2 PK WND 01030/0205 SFC VIS 4 P0001 T10331044
Conditions at: KMCI (KANSAS CITY/INTL, MO, US) observed 0232 UTC 23 January 2019
Temperature: -3.3°C (26°F)
Dewpoint: -4.4°C (24°F) [RH = 92%]
Pressure (altimeter): 29.89 inches Hg (1012.3 mb)
Winds: from the NNW (340 degrees) at 18 MPH (16 knots; 8.2 m/s)
gusting to 26 MPH (23 knots; 11.8 m/s)
Visibility: 3 miles ( 5 km)
Ceiling: 1200 feet AGL
Clouds: broken clouds at 1200 feet AGL
broken clouds at 1700 feet AGL
overcast cloud deck at 2300 feet AGL
Weather: -SN BR  (light snow, mist)

METAR text: KMCI 230225Z 35014G24KT 3SM -SN BR SCT010 BKN015 OVC023 M03/M04 A2989 RMK AO2 PK WND 01030/0205 SFC VIS 3 P0001 T10281044
Conditions at: KMCI (KANSAS CITY/INTL, MO, US) observed 0225 UTC 23 January 2019
Temperature: -2.8°C (27°F)
Dewpoint: -4.4°C (24°F) [RH = 89%]
Pressure (altimeter): 29.89 inches Hg (1012.3 mb)
Winds: from the N (350 degrees) at 16 MPH (14 knots; 7.2 m/s)
gusting to 28 MPH (24 knots; 12.3 m/s)
Visibility: 3 miles ( 5 km)
Ceiling: 1500 feet AGL
Clouds: scattered clouds at 1000 feet AGL
broken clouds at 1500 feet AGL
overcast cloud deck at 2300 feet AGL
Weather: -SN BR  (light snow, mist)

METAR text: KMCI 230200Z 35019G27KT 2SM -SN BR SCT007 BKN015 OVC025 M03/M04 A2988 RMK AO2 PK WND 36027/0159 SFC VIS 3 P0000 T10281039
Conditions at: KMCI (KANSAS CITY/INTL, MO, US) observed 0200 UTC 23 January 2019
Temperature: -2.8°C (27°F)
Dewpoint: -3.9°C (25°F) [RH = 92%]
Pressure (altimeter): 29.88 inches Hg (1011.9 mb)
Winds: from the N (350 degrees) at 22 MPH (19 knots; 9.8 m/s)
gusting to 31 MPH (27 knots; 13.9 m/s)
Visibility: 2.00 miles (3.22 km)
Ceiling: 1500 feet AGL
Clouds: scattered clouds at 700 feet AGL
broken clouds at 1500 feet AGL
overcast cloud deck at 2500 feet AGL
Weather: -SN BR  (light snow, mist)

METAR text: KMCI 230153Z 35015KT 2SM -SN BR BKN009 OVC015 M02/M04 A2987 RMK AO2 PK WND 35026/0132 SFC VIS 2 1/2 UPB39E41FZRAE23SNE39B41 SLP123 P0005 I1000 T10221039
Conditions at: KMCI (KANSAS CITY/INTL, MO, US) observed 0153 UTC 23 January 2019
Temperature: -2.2°C (28°F)
Dewpoint: -3.9°C (25°F) [RH = 88%]
Pressure (altimeter): 29.87 inches Hg (1011.6 mb)
[Sea-level pressure: 1012.3 mb]
Winds: from the N (350 degrees) at 17 MPH (15 knots; 7.7 m/s)
Visibility: 2.00 miles (3.22 km)
Ceiling: 900 feet AGL
Clouds: broken clouds at 900 feet AGL
overcast cloud deck at 1500 feet AGL
Weather: -SN BR  (light snow, mist)

METAR text: KMCI 230124Z 35014G22KT 2 1/2SM -SN BR BKN009 OVC015 M02/M03 A2988 RMK AO2 FZRAE23 P0002 I1000 T10171028
Conditions at: KMCI (KANSAS CITY/INTL, MO, US) observed 0124 UTC 23 January 2019
Temperature: -1.7°C (29°F)
Dewpoint: -2.8°C (27°F) [RH = 92%]
Pressure (altimeter): 29.88 inches Hg (1011.9 mb)
Winds: from the N (350 degrees) at 16 MPH (14 knots; 7.2 m/s)
gusting to 25 MPH (22 knots; 11.3 m/s)
Visibility: 2.50 miles (4.02 km)
Ceiling: 900 feet AGL
Clouds: broken clouds at 900 feet AGL
overcast cloud deck at 1500 feet AGL
Weather: -SN BR  (light snow, mist)

METAR text: KMCI 230107Z 35015KT 5SM -FZRASN BR OVC008 M01/M03 A2988 RMK AO2 P0000 I1000 T10111028
Conditions at: KMCI (KANSAS CITY/INTL, MO, US) observed 0107 UTC 23 January 2019
Temperature: -1.1°C (30°F)
Dewpoint: -2.8°C (27°F) [RH = 88%]
Pressure (altimeter): 29.88 inches Hg (1011.9 mb)
Winds: from the N (350 degrees) at 17 MPH (15 knots; 7.7 m/s)
Visibility: 5 miles ( 8 km)
Ceiling: 800 feet AGL
Clouds: overcast cloud deck at 800 feet AGL
Weather: -FZRA SN BR  (light freezing rain, moderate snow, mist)

METAR text: KMCI 230053Z 35010KT 6SM -FZRASN BR OVC010 M01/M02 A2987 RMK AO2 SNB46 SLP122 P0004 I1003 T10061022
Conditions at: KMCI (KANSAS CITY/INTL, MO, US) observed 0053 UTC 23 January 2019
Temperature: -0.6°C (31°F)
Dewpoint: -2.2°C (28°F) [RH = 89%]
Pressure (altimeter): 29.87 inches Hg (1011.6 mb)
[Sea-level pressure: 1012.2 mb]
Winds: from the N (350 degrees) at 12 MPH (10 knots; 5.1 m/s)
Visibility: 6 miles (10 km)
Ceiling: 1000 feet AGL
Clouds: overcast cloud deck at 1000 feet AGL
Weather: -FZRA SN BR  (light freezing rain, moderate snow, mist)

METAR text: KMCI 222353Z 35013KT 6SM -FZRA BR OVC008 00/M01 A2987 RMK AO2 SLP120 P0005 60021 I1001 I6001 T00001011 10039 20000 53015
Conditions at: KMCI (KANSAS CITY/INTL, MO, US) observed 2353 UTC 22 January 2019
Temperature: 0.0°C (32°F)
Dewpoint: -1.1°C (30°F) [RH = 92%]
Pressure (altimeter): 29.87 inches Hg (1011.6 mb)
[Sea-level pressure: 1012.0 mb]
Winds: from the N (350 degrees) at 15 MPH (13 knots; 6.7 m/s)
Visibility: 6 miles (10 km)
Ceiling: 800 feet AGL
Clouds: overcast cloud deck at 800 feet AGL
Weather: -FZRA BR  (light freezing rain, mist)

METAR text: KMCI 222253Z 35015G20KT 5SM -FZRA BR OVC006 00/M01 A2984 RMK AO2 RAE48FZRAB48 SLP110 P0002 I1000 T00001006
Conditions at: KMCI (KANSAS CITY/INTL, MO, US) observed 2253 UTC 22 January 2019
Temperature: 0.0°C (32°F)
Dewpoint: -0.6°C (31°F) [RH = 96%]
Pressure (altimeter): 29.84 inches Hg (1010.6 mb)
[Sea-level pressure: 1011.0 mb]
Winds: from the N (350 degrees) at 17 MPH (15 knots; 7.7 m/s)
gusting to 23 MPH (20 knots; 10.3 m/s)
Visibility: 5 miles ( 8 km)
Ceiling: 600 feet AGL
Clouds: overcast cloud deck at 600 feet AGL
Weather: -FZRA BR  (light freezing rain, mist)

METAR text: KMCI 222207Z 36014KT 8SM -RA OVC005 01/M01 A2983 RMK AO2 P0000 T00061006
Conditions at: KMCI (KANSAS CITY/INTL, MO, US) observed 2207 UTC 22 January 2019
Temperature: 0.6°C (33°F)
Dewpoint: -0.6°C (31°F) [RH = 92%]
Pressure (altimeter): 29.83 inches Hg (1010.2 mb)
Winds: from the N (360 degrees) at 16 MPH (14 knots; 7.2 m/s)
Visibility: 8 miles (13 km)
Ceiling: 500 feet AGL
Clouds: overcast cloud deck at 500 feet AGL
Weather: -RA  (light rain)

METAR text: KMCI 222153Z 36013G22KT 2SM -RA BR OVC005 01/00 A2983 RMK AO2 SFC VIS 5 SLP107 P0002 T00060000
Conditions at: KMCI (KANSAS CITY/INTL, MO, US) observed 2153 UTC 22 January 2019
Temperature: 0.6°C (33°F)
Dewpoint: 0.0°C (32°F) [RH = 96%]
Pressure (altimeter): 29.83 inches Hg (1010.2 mb)
[Sea-level pressure: 1010.7 mb]
Winds: from the N (360 degrees) at 15 MPH (13 knots; 6.7 m/s)
gusting to 25 MPH (22 knots; 11.3 m/s)
Visibility: 2.00 miles (3.22 km)
Ceiling: 500 feet AGL
Clouds: overcast cloud deck at 500 feet AGL
Weather: -RA BR  (light rain, mist)

METAR text: KMCI 222102Z 36013KT 2SM -RA BR OVC005 01/00 A2982 RMK AO2 SFC VIS 6 P0000 T00110000
Conditions at: KMCI (KANSAS CITY/INTL, MO, US) observed 2102 UTC 22 January 2019
Temperature: 1.1°C (34°F)
Dewpoint: 0.0°C (32°F) [RH = 92%]
Pressure (altimeter): 29.82 inches Hg (1009.9 mb)
Winds: from the N (360 degrees) at 15 MPH (13 knots; 6.7 m/s)
Visibility: 2.00 miles (3.22 km)
Ceiling: 500 feet AGL
Clouds: overcast cloud deck at 500 feet AGL
Weather: -RA BR  (light rain, mist)

METAR text: KMCI 222053Z 36013KT 2SM -RA BR OVC003 01/01 A2982 RMK AO2 SFC VIS 4 SLP105 P0002 60012 T00110006 51005
Conditions at: KMCI (KANSAS CITY/INTL, MO, US) observed 2053 UTC 22 January 2019
Temperature: 1.1°C (34°F)
Dewpoint: 0.6°C (33°F) [RH = 96%]
Pressure (altimeter): 29.82 inches Hg (1009.9 mb)
[Sea-level pressure: 1010.5 mb]
Winds: from the N (360 degrees) at 15 MPH (13 knots; 6.7 m/s)
Visibility: 2.00 miles (3.22 km)
Ceiling: 300 feet AGL
Clouds: overcast cloud deck at 300 feet AGL
Weather: -RA BR  (light rain, mist)

METAR text: KMCI 222026Z 35013KT 1SM R19R/P6000FT -RA BR OVC003 01/01 A2982 RMK AO2 SFC VIS 4 P0001 T00110011
Conditions at: KMCI (KANSAS CITY/INTL, MO, US) observed 2026 UTC 22 January 2019
Temperature: 1.1°C (34°F)
Dewpoint: 1.1°C (34°F) [RH = 100%]
Pressure (altimeter): 29.82 inches Hg (1009.9 mb)
Winds: from the N (350 degrees) at 15 MPH (13 knots; 6.7 m/s)
Visibility: 1.00 miles (1.61 km)
Ceiling: 300 feet AGL
Clouds: overcast cloud deck at 300 feet AGL
Weather: -RA BR  (light rain, mist)

METAR text: KMCI 221953Z 35011KT 1/2SM R19R/P6000FT -RA BR OVC002 02/02 A2981 RMK AO2 SFC VIS 3 RAE29B48UPB29E43 SLP101 P0004 T00170017
Conditions at: KMCI (KANSAS CITY/INTL, MO, US) observed 1953 UTC 22 January 2019
Temperature: 1.7°C (35°F)
Dewpoint: 1.7°C (35°F) [RH = 100%]
Pressure (altimeter): 29.81 inches Hg (1009.6 mb)
[Sea-level pressure: 1010.1 mb]
Winds: from the N (350 degrees) at 13 MPH (11 knots; 5.7 m/s)
Visibility: 0.50 miles (0.80 km)
Ceiling: 200 feet AGL
Clouds: overcast cloud deck at 200 feet AGL
Weather: -RA BR  (light rain, mist)

METAR text: KMCI 221853Z 34006KT 1/2SM R19R/5000V5500FT -RA BR OVC002 03/03 A2981 RMK AO2 SFC VIS 1 1/2 SLP098 P0006 T00280028
Conditions at: KMCI (KANSAS CITY/INTL, MO, US) observed 1853 UTC 22 January 2019
Temperature: 2.8°C (37°F)
Dewpoint: 2.8°C (37°F) [RH = 100%]
Pressure (altimeter): 29.81 inches Hg (1009.6 mb)
[Sea-level pressure: 1009.8 mb]
Winds: from the NNW (340 degrees) at 7 MPH (6 knots; 3.1 m/s)
Visibility: 0.50 miles (0.80 km)
Ceiling: 200 feet AGL
Clouds: overcast cloud deck at 200 feet AGL
Weather: -RA BR  (light rain, mist)

METAR text: KMCI 221833Z 34007KT 3/4SM R19R/2800VP6000FT -RA BR OVC004 04/04 A2980 RMK AO2 P0002 T00390039
Conditions at: KMCI (KANSAS CITY/INTL, MO, US) observed 1833 UTC 22 January 2019
Temperature: 3.9°C (39°F)
Dewpoint: 3.9°C (39°F) [RH = 100%]
Pressure (altimeter): 29.80 inches Hg (1009.2 mb)
Winds: from the NNW (340 degrees) at 8 MPH (7 knots; 3.6 m/s)
Visibility: 0.75 miles (1.21 km)
Ceiling: 400 feet AGL
Clouds: overcast cloud deck at 400 feet AGL
Weather: -RA BR  (light rain, mist)

METAR text: KMCI 221753Z 15010KT 1 1/2SM R19R/6000VP6000FT -RA BR OVC005 04/04 A2980 RMK AO2 SLP096 P0001 60005 T00390039 10039 20022 58002
Conditions at: KMCI (KANSAS CITY/INTL, MO, US) observed 1753 UTC 22 January 2019
Temperature: 3.9°C (39°F)
Dewpoint: 3.9°C (39°F) [RH = 100%]
Pressure (altimeter): 29.80 inches Hg (1009.2 mb)
[Sea-level pressure: 1009.6 mb]
Winds: from the SSE (150 degrees) at 12 MPH (10 knots; 5.1 m/s)
Visibility: 1.50 miles (2.41 km)
Ceiling: 500 feet AGL
Clouds: overcast cloud deck at 500 feet AGL
Weather: -RA BR  (light rain, mist)

METAR text: KMCI 221744Z 15009KT 1 3/4SM -RA BR OVC005 04/04 A2980 RMK AO2 P0001 T00390039
Conditions at: KMCI (KANSAS CITY/INTL, MO, US) observed 1744 UTC 22 January 2019
Temperature: 3.9°C (39°F)
Dewpoint: 3.9°C (39°F) [RH = 100%]
Pressure (altimeter): 29.80 inches Hg (1009.2 mb)
Winds: from the SSE (150 degrees) at 10 MPH (9 knots; 4.6 m/s)
Visibility: 1.75 miles (2.82 km)
Ceiling: 500 feet AGL
Clouds: overcast cloud deck at 500 feet AGL
Weather: -RA BR  (light rain, mist)

METAR text: KMCI 221734Z 15009KT 2SM -RA BR OVC007 04/04 A2981 RMK AO2 P0001 T00390039
Conditions at: KMCI (KANSAS CITY/INTL, MO, US) observed 1734 UTC 22 January 2019
Temperature: 3.9°C (39°F)
Dewpoint: 3.9°C (39°F) [RH = 100%]
Pressure (altimeter): 29.81 inches Hg (1009.6 mb)
Winds: from the SSE (150 degrees) at 10 MPH (9 knots; 4.6 m/s)
Visibility: 2.00 miles (3.22 km)
Ceiling: 700 feet AGL
Clouds: overcast cloud deck at 700 feet AGL
Weather: -RA BR  (light rain, mist)

METAR text: KMCI 221714Z 15010KT 1 3/4SM -RA BR OVC007 03/03 A2981 RMK AO2 P0000 T00330033
Conditions at: KMCI (KANSAS CITY/INTL, MO, US) observed 1714 UTC 22 January 2019
Temperature: 3.3°C (38°F)
Dewpoint: 3.3°C (38°F) [RH = 100%]
Pressure (altimeter): 29.81 inches Hg (1009.6 mb)
Winds: from the SSE (150 degrees) at 12 MPH (10 knots; 5.1 m/s)
Visibility: 1.75 miles (2.82 km)
Ceiling: 700 feet AGL
Clouds: overcast cloud deck at 700 feet AGL
Weather: -RA BR  (light rain, mist)

METAR text: KMCI 221653Z 15011KT 2 1/2SM -RA BR OVC008 03/03 A2981 RMK AO2 TWR VIS 3 SLP101 P0002 T00330033
Conditions at: KMCI (KANSAS CITY/INTL, MO, US) observed 1653 UTC 22 January 2019
Temperature: 3.3°C (38°F)
Dewpoint: 3.3°C (38°F) [RH = 100%]
Pressure (altimeter): 29.81 inches Hg (1009.6 mb)
[Sea-level pressure: 1010.1 mb]
Winds: from the SSE (150 degrees) at 13 MPH (11 knots; 5.7 m/s)
Visibility: 2.50 miles (4.02 km)
Ceiling: 800 feet AGL
Clouds: overcast cloud deck at 800 feet AGL
Weather: -RA BR  (light rain, mist)

METAR text: KMCI 221632Z 15012KT 2SM -RA BR OVC009 03/03 A2981 RMK AO2 SFC VIS 2 1/2 P0001 T00330033
Conditions at: KMCI (KANSAS CITY/INTL, MO, US) observed 1632 UTC 22 January 2019
Temperature: 3.3°C (38°F)
Dewpoint: 3.3°C (38°F) [RH = 100%]
Pressure (altimeter): 29.81 inches Hg (1009.6 mb)
Winds: from the SSE (150 degrees) at 14 MPH (12 knots; 6.2 m/s)
Visibility: 2.00 miles (3.22 km)
Ceiling: 900 feet AGL
Clouds: overcast cloud deck at 900 feet AGL
Weather: -RA BR  (light rain, mist)

METAR text: KMCI 221553Z 15011KT 2SM -RA BR OVC011 03/02 A2981 RMK AO2 UPB01E14 SLP102 P0002 T00330022
Conditions at: KMCI (KANSAS CITY/INTL, MO, US) observed 1553 UTC 22 January 2019
Temperature: 3.3°C (38°F)
Dewpoint: 2.2°C (36°F) [RH = 92%]
Pressure (altimeter): 29.81 inches Hg (1009.6 mb)
[Sea-level pressure: 1010.2 mb]
Winds: from the SSE (150 degrees) at 13 MPH (11 knots; 5.7 m/s)
Visibility: 2.00 miles (3.22 km)
Ceiling: 1100 feet AGL
Clouds: overcast cloud deck at 1100 feet AGL
Weather: -RA BR  (light rain, mist)

METAR text: KMCI 221543Z 15010KT 1 3/4SM -RA BR OVC011 03/02 A2981 RMK AO2 UPB01E14 P0001 T00280022
Conditions at: KMCI (KANSAS CITY/INTL, MO, US) observed 1543 UTC 22 January 2019
Temperature: 2.8°C (37°F)
Dewpoint: 2.2°C (36°F) [RH = 96%]
Pressure (altimeter): 29.81 inches Hg (1009.6 mb)
Winds: from the SSE (150 degrees) at 12 MPH (10 knots; 5.1 m/s)
Visibility: 1.75 miles (2.82 km)
Ceiling: 1100 feet AGL
Clouds: overcast cloud deck at 1100 feet AGL
Weather: -RA BR  (light rain, mist)

METAR text: KMCI 221530Z 14011KT 2SM -RA BR OVC012 03/02 A2981 RMK AO2 UPB01E14 P0000 T00280022
Conditions at: KMCI (KANSAS CITY/INTL, MO, US) observed 1530 UTC 22 January 2019
Temperature: 2.8°C (37°F)
Dewpoint: 2.2°C (36°F) [RH = 96%]
Pressure (altimeter): 29.81 inches Hg (1009.6 mb)
Winds: from the SE (140 degrees) at 13 MPH (11 knots; 5.7 m/s)
Visibility: 2.00 miles (3.22 km)
Ceiling: 1200 feet AGL
Clouds: overcast cloud deck at 1200 feet AGL
Weather: -RA BR  (light rain, mist)

METAR text: KMCI 221453Z 14011KT 4SM -RA BR OVC014 03/01 A2980 RMK AO2 RAB45 SLP099 P0000 60000 T00280011 56001
Conditions at: KMCI (KANSAS CITY/INTL, MO, US) observed 1453 UTC 22 January 2019
Temperature: 2.8°C (37°F)
Dewpoint: 1.1°C (34°F) [RH = 89%]
Pressure (altimeter): 29.80 inches Hg (1009.2 mb)
[Sea-level pressure: 1009.9 mb]
Winds: from the SE (140 degrees) at 13 MPH (11 knots; 5.7 m/s)
Visibility: 4 miles ( 6 km)
Ceiling: 1400 feet AGL
Clouds: overcast cloud deck at 1400 feet AGL
Weather: -RA BR  (light rain, mist)

METAR text: KMCI 221353Z 13009KT 10SM OVC018 03/01 A2981 RMK AO2 SLP100 T00280006
Conditions at: KMCI (KANSAS CITY/INTL, MO, US) observed 1353 UTC 22 January 2019
Temperature: 2.8°C (37°F)
Dewpoint: 0.6°C (33°F) [RH = 85%]
Pressure (altimeter): 29.81 inches Hg (1009.6 mb)
[Sea-level pressure: 1010.0 mb]
Winds: from the SE (130 degrees) at 10 MPH (9 knots; 4.6 m/s)
Visibility: 10 or more miles (16+ km)
Ceiling: 1800 feet AGL
Clouds: overcast cloud deck at 1800 feet AGL
Weather: no significant weather observed at this time

METAR text: KMCI 221253Z 13012KT 10SM OVC019 03/M01 A2980 RMK AO2 SLP096 T00281006
Conditions at: KMCI (KANSAS CITY/INTL, MO, US) observed 1253 UTC 22 January 2019
Temperature: 2.8°C (37°F)
Dewpoint: -0.6°C (31°F) [RH = 78%]
Pressure (altimeter): 29.80 inches Hg (1009.2 mb)
[Sea-level pressure: 1009.6 mb]
Winds: from the SE (130 degrees) at 14 MPH (12 knots; 6.2 m/s)
Visibility: 10 or more miles (16+ km)
Ceiling: 1900 feet AGL
Clouds: overcast cloud deck at 1900 feet AGL
Weather: no significant weather observed at this time

METAR text: KMCI 221153Z 14011KT 10SM OVC021 02/M01 A2981 RMK AO2 SLP101 4/001 T00221011 10022 20011 55001 $
Conditions at: KMCI (KANSAS CITY/INTL, MO, US) observed 1153 UTC 22 January 2019
Temperature: 2.2°C (36°F)
Dewpoint: -1.1°C (30°F) [RH = 79%]
Pressure (altimeter): 29.81 inches Hg (1009.6 mb)
[Sea-level pressure: 1010.1 mb]
Winds: from the SE (140 degrees) at 13 MPH (11 knots; 5.7 m/s)
Visibility: 10 or more miles (16+ km)
Ceiling: 2100 feet AGL
Clouds: overcast cloud deck at 2100 feet AGL
Weather:
SOME DATA ABOVE MAY BE INACCURATE!!!
"$" is an indication the sensor requires maintenance

METAR text: KMCI 221053Z 14013KT 10SM OVC024 02/M01 A2980 RMK AO2 SLP098 T00221011 $
Conditions at: KMCI (KANSAS CITY/INTL, MO, US) observed 1053 UTC 22 January 2019
Temperature: 2.2°C (36°F)
Dewpoint: -1.1°C (30°F) [RH = 79%]
Pressure (altimeter): 29.80 inches Hg (1009.2 mb)
[Sea-level pressure: 1009.8 mb]
Winds: from the SE (140 degrees) at 15 MPH (13 knots; 6.7 m/s)
Visibility: 10 or more miles (16+ km)
Ceiling: 2400 feet AGL
Clouds: overcast cloud deck at 2400 feet AGL
Weather:
SOME DATA ABOVE MAY BE INACCURATE!!!
"$" is an indication the sensor requires maintenance

METAR text: KMCI 220953Z 14013G22KT 10SM OVC025 02/M02 A2980 RMK AO2 SLP099 T00171022 $
Conditions at: KMCI (KANSAS CITY/INTL, MO, US) observed 0953 UTC 22 January 2019
Temperature: 1.7°C (35°F)
Dewpoint: -2.2°C (28°F) [RH = 75%]
Pressure (altimeter): 29.80 inches Hg (1009.2 mb)
[Sea-level pressure: 1009.9 mb]
Winds: from the SE (140 degrees) at 15 MPH (13 knots; 6.7 m/s)
gusting to 25 MPH (22 knots; 11.3 m/s)
Visibility: 10 or more miles (16+ km)
Ceiling: 2500 feet AGL
Clouds: overcast cloud deck at 2500 feet AGL
Weather:
SOME DATA ABOVE MAY BE INACCURATE!!!
"$" is an indication the sensor requires maintenance

METAR text: KMCI 220853Z 14015G21KT 10SM OVC028 02/M02 A2981 RMK AO2 PK WND 15028/0825 SLP102 T00171022 56010 $
Conditions at: KMCI (KANSAS CITY/INTL, MO, US) observed 0853 UTC 22 January 2019
Temperature: 1.7°C (35°F)
Dewpoint: -2.2°C (28°F) [RH = 75%]
Pressure (altimeter): 29.81 inches Hg (1009.6 mb)
[Sea-level pressure: 1010.2 mb]
Winds: from the SE (140 degrees) at 17 MPH (15 knots; 7.7 m/s)
gusting to 24 MPH (21 knots; 10.8 m/s)
Visibility: 10 or more miles (16+ km)
Ceiling: 2800 feet AGL
Clouds: overcast cloud deck at 2800 feet AGL
Weather:
SOME DATA ABOVE MAY BE INACCURATE!!!
"$" is an indication the sensor requires maintenance

METAR text: KMCI 220825Z 15020G28KT 10SM OVC029 02/M02 A2981 RMK AO2 PK WND 15028/0825 T00171022 $
Conditions at: KMCI (KANSAS CITY/INTL, MO, US) observed 0825 UTC 22 January 2019
Temperature: 1.7°C (35°F)
Dewpoint: -2.2°C (28°F) [RH = 75%]
Pressure (altimeter): 29.81 inches Hg (1009.6 mb)
Winds: from the SSE (150 degrees) at 23 MPH (20 knots; 10.3 m/s)
gusting to 32 MPH (28 knots; 14.4 m/s)
Visibility: 10 or more miles (16+ km)
Ceiling: 2900 feet AGL
Clouds: overcast cloud deck at 2900 feet AGL
Weather:
SOME DATA ABOVE MAY BE INACCURATE!!!
"$" is an indication the sensor requires maintenance

Forecast for: KMCI (KANSAS CITY/INTL, MO, US)
Text: KMCI 231826Z 2318/2418 30007KT P6SM SCT015
Forecast period: 1800 to 2200 UTC 23 January 2019
Forecast type: FROM: standard forecast or significant change
Winds: from the WNW (300 degrees) at 8 MPH (7 knots; 3.6 m/s)
Visibility: 6 or more miles 10+ km)
Ceiling: at least 12,000 feet AGL
Clouds: scattered clouds at 1500 feet AGL
Weather: no significant weather forecast for this period
Text: TEMPO 2318/2322 BKN015
Forecast period: 1800 to 2200 UTC 23 January 2019
Forecast type: TEMPORARY: The following changes expected for less than half the time period
Visibility: missing
Ceiling: 1500 feet AGL
Clouds: broken clouds at 1500 feet AGL
Weather: no significant weather forecast for this period
Text: FM232200 27007KT P6SM FEW250
Forecast period: 2200 UTC 23 January 2019 to 1200 UTC 24 January 2019
Forecast type: FROM: standard forecast or significant change
Winds: from the W (270 degrees) at 8 MPH (7 knots; 3.6 m/s)
Visibility: 6 or more miles 10+ km)
Ceiling: at least 12,000 feet AGL
Clouds: few clouds at 25000 feet AGL
Weather: no significant weather forecast for this period
Text: FM241200 33009KT P6SM BKN220
Forecast period: 1200 to 1600 UTC 24 January 2019
Forecast type: FROM: standard forecast or significant change
Winds: from the NNW (330 degrees) at 10 MPH (9 knots; 4.6 m/s)
Visibility: 6 or more miles 10+ km)
Ceiling: 22000 feet AGL
Clouds: broken clouds at 22000 feet AGL
Weather: no significant weather forecast for this period
Text: FM241600 34013KT P6SM BKN026
Forecast period: 1600 to 1800 UTC 24 January 2019
Forecast type: FROM: standard forecast or significant change
Winds: from the NNW (340 degrees) at 15 MPH (13 knots; 6.7 m/s)
Visibility: 6 or more miles 10+ km)
Ceiling: 2600 feet AGL
Clouds: broken clouds at 2600 feet AGL
Weather: no significant weather forecast for this period